sensor_id;sensor_type;location;lat;lon;timestamp;temperature;humidity
31084;DHT22;36333;51.382;0.016;2022-07-30T00:01:34;16.60;89.80
31084;DHT22;36333;51.382;0.016;2022-07-30T00:04:02;16.50;90.00
31084;DHT22;36333;51.382;0.016;2022-07-30T00:06:31;16.40;90.00
31084;DHT22;36333;51.382;0.016;2022-07-30T00:08:59;16.40;90.20
31084;DHT22;36333;51.382;0.016;2022-07-30T00:11:26;16.30;90.60
31084;DHT22;36333;51.382;0.016;2022-07-30T00:13:54;16.30;90.20
31084;DHT22;36333;51.382;0.016;2022-07-30T00:16:22;16.20;91.00
31084;DHT22;36333;51.382;0.016;2022-07-30T00:18:50;16.20;90.40
31084;DHT22;36333;51.382;0.016;2022-07-30T00:21:18;16.10;90.50
31084;DHT22;36333;51.382;0.016;2022-07-30T00:24:06;16.10;90.60
31084;DHT22;36333;51.382;0.016;2022-07-30T00:26:34;16.10;90.70
31084;DHT22;36333;51.382;0.016;2022-07-30T00:29:03;16.10;90.70
31084;DHT22;36333;51.382;0.016;2022-07-30T00:31:31;16.10;90.90
31084;DHT22;36333;51.382;0.016;2022-07-30T00:33:59;16.10;90.90
31084;DHT22;36333;51.382;0.016;2022-07-30T00:36:27;16.10;90.90
31084;DHT22;36333;51.382;0.016;2022-07-30T00:38:54;16.10;91.00
31084;DHT22;36333;51.382;0.016;2022-07-30T00:41:22;16.10;91.00
31084;DHT22;36333;51.382;0.016;2022-07-30T00:43:50;16.10;90.90
31084;DHT22;36333;51.382;0.016;2022-07-30T00:46:18;16.10;91.00
31084;DHT22;36333;51.382;0.016;2022-07-30T00:48:46;16.10;91.00
31084;DHT22;36333;51.382;0.016;2022-07-30T00:51:13;16.10;91.00
31084;DHT22;36333;51.382;0.016;2022-07-30T00:53:41;16.20;91.10
31084;DHT22;36333;51.382;0.016;2022-07-30T00:56:08;16.20;91.00
31084;DHT22;36333;51.382;0.016;2022-07-30T00:58:36;16.20;91.00
31084;DHT22;36333;51.382;0.016;2022-07-30T01:01:04;16.20;91.00
31084;DHT22;36333;51.382;0.016;2022-07-30T01:03:32;16.20;91.00
31084;DHT22;36333;51.382;0.016;2022-07-30T01:05:59;16.20;91.00
31084;DHT22;36333;51.382;0.016;2022-07-30T01:08:27;16.20;91.10
31084;DHT22;36333;51.382;0.016;2022-07-30T01:10:54;16.20;91.10
31084;DHT22;36333;51.382;0.016;2022-07-30T01:13:22;16.20;91.10
31084;DHT22;36333;51.382;0.016;2022-07-30T01:15:50;16.20;91.20
31084;DHT22;36333;51.382;0.016;2022-07-30T01:18:17;16.10;91.20
31084;DHT22;36333;51.382;0.016;2022-07-30T01:20:54;16.10;91.20
31084;DHT22;36333;51.382;0.016;2022-07-30T01:23:32;16.00;91.70
31084;DHT22;36333;51.382;0.016;2022-07-30T01:26:08;16.00;91.30
31084;DHT22;36333;51.382;0.016;2022-07-30T01:28:44;16.00;91.30
31084;DHT22;36333;51.382;0.016;2022-07-30T01:31:13;16.00;91.40
31084;DHT22;36333;51.382;0.016;2022-07-30T01:33:44;15.90;91.40
31084;DHT22;36333;51.382;0.016;2022-07-30T01:36:14;15.90;91.50
31084;DHT22;36333;51.382;0.016;2022-07-30T01:38:44;15.90;91.40
31084;DHT22;36333;51.382;0.016;2022-07-30T01:41:13;15.90;91.40
31084;DHT22;36333;51.382;0.016;2022-07-30T01:43:43;15.90;91.40
31084;DHT22;36333;51.382;0.016;2022-07-30T01:46:14;15.90;91.40
31084;DHT22;36333;51.382;0.016;2022-07-30T01:48:45;15.80;91.40
31084;DHT22;36333;51.382;0.016;2022-07-30T01:51:16;15.80;91.50
31084;DHT22;36333;51.382;0.016;2022-07-30T01:53:49;15.80;91.60
31084;DHT22;36333;51.382;0.016;2022-07-30T01:56:20;15.70;91.60
31084;DHT22;36333;51.382;0.016;2022-07-30T01:58:53;15.70;91.70
31084;DHT22;36333;51.382;0.016;2022-07-30T02:01:26;15.70;91.70
31084;DHT22;36333;51.382;0.016;2022-07-30T02:04:01;15.70;91.80
31084;DHT22;36333;51.382;0.016;2022-07-30T02:06:42;15.70;91.80
31084;DHT22;36333;51.382;0.016;2022-07-30T02:09:14;15.70;92.00
31084;DHT22;36333;51.382;0.016;2022-07-30T02:11:46;15.70;91.80
31084;DHT22;36333;51.382;0.016;2022-07-30T02:14:44;15.70;91.80
31084;DHT22;36333;51.382;0.016;2022-07-30T02:17:17;15.70;91.80
31084;DHT22;36333;51.382;0.016;2022-07-30T02:19:50;15.70;91.80
31084;DHT22;36333;51.382;0.016;2022-07-30T02:22:21;15.70;91.80
31084;DHT22;36333;51.382;0.016;2022-07-30T02:24:51;15.70;91.90
31084;DHT22;36333;51.382;0.016;2022-07-30T02:27:31;15.70;91.90
31084;DHT22;36333;51.382;0.016;2022-07-30T02:30:01;15.60;92.00
31084;DHT22;36333;51.382;0.016;2022-07-30T02:32:34;15.60;91.90
31084;DHT22;36333;51.382;0.016;2022-07-30T02:35:08;15.60;91.90
31084;DHT22;36333;51.382;0.016;2022-07-30T02:37:40;15.60;91.90
31084;DHT22;36333;51.382;0.016;2022-07-30T02:40:15;15.50;91.90
31084;DHT22;36333;51.382;0.016;2022-07-30T02:42:46;15.50;92.00
31084;DHT22;36333;51.382;0.016;2022-07-30T02:45:19;15.50;92.10
31084;DHT22;36333;51.382;0.016;2022-07-30T02:47:53;15.40;92.00
31084;DHT22;36333;51.382;0.016;2022-07-30T02:50:23;15.40;92.00
31084;DHT22;36333;51.382;0.016;2022-07-30T02:52:52;15.40;92.10
31084;DHT22;36333;51.382;0.016;2022-07-30T02:55:22;15.30;92.10
31084;DHT22;36333;51.382;0.016;2022-07-30T02:57:53;15.30;92.20
31084;DHT22;36333;51.382;0.016;2022-07-30T03:00:23;15.20;92.30
31084;DHT22;36333;51.382;0.016;2022-07-30T03:02:53;15.20;92.30
31084;DHT22;36333;51.382;0.016;2022-07-30T03:05:25;15.20;92.40
31084;DHT22;36333;51.382;0.016;2022-07-30T03:07:55;15.20;92.40
31084;DHT22;36333;51.382;0.016;2022-07-30T03:10:24;15.10;92.40
31084;DHT22;36333;51.382;0.016;2022-07-30T03:12:54;15.10;92.40
31084;DHT22;36333;51.382;0.016;2022-07-30T03:15:22;15.00;92.50
31084;DHT22;36333;51.382;0.016;2022-07-30T03:17:51;15.00;92.60
31084;DHT22;36333;51.382;0.016;2022-07-30T03:20:28;14.90;93.10
31084;DHT22;36333;51.382;0.016;2022-07-30T03:22:58;14.90;92.80
31084;DHT22;36333;51.382;0.016;2022-07-30T03:25:31;14.90;92.80
31084;DHT22;36333;51.382;0.016;2022-07-30T03:28:00;14.90;93.00
31084;DHT22;36333;51.382;0.016;2022-07-30T03:30:30;14.80;93.00
31084;DHT22;36333;51.382;0.016;2022-07-30T03:33:00;14.80;93.10
31084;DHT22;36333;51.382;0.016;2022-07-30T03:35:29;14.80;93.20
31084;DHT22;36333;51.382;0.016;2022-07-30T03:37:59;14.80;93.30
31084;DHT22;36333;51.382;0.016;2022-07-30T03:40:28;14.80;93.40
31084;DHT22;36333;51.382;0.016;2022-07-30T03:42:56;14.70;93.50
31084;DHT22;36333;51.382;0.016;2022-07-30T03:45:25;14.70;93.70
31084;DHT22;36333;51.382;0.016;2022-07-30T03:47:59;14.70;93.80
31084;DHT22;36333;51.382;0.016;2022-07-30T03:50:27;14.60;94.00
31084;DHT22;36333;51.382;0.016;2022-07-30T03:52:55;14.60;94.60
31084;DHT22;36333;51.382;0.016;2022-07-30T03:55:24;14.30;94.70
31084;DHT22;36333;51.382;0.016;2022-07-30T03:58:11;14.50;94.20
31084;DHT22;36333;51.382;0.016;2022-07-30T04:00:39;14.50;95.00
31084;DHT22;36333;51.382;0.016;2022-07-30T04:03:08;14.50;94.40
31084;DHT22;36333;51.382;0.016;2022-07-30T04:05:49;14.40;94.50
31084;DHT22;36333;51.382;0.016;2022-07-30T04:08:16;14.40;94.70
31084;DHT22;36333;51.382;0.016;2022-07-30T04:10:44;14.40;95.00
31084;DHT22;36333;51.382;0.016;2022-07-30T04:13:31;14.30;95.10
31084;DHT22;36333;51.382;0.016;2022-07-30T04:16:08;14.30;95.30
31084;DHT22;36333;51.382;0.016;2022-07-30T04:18:59;14.30;95.50
31084;DHT22;36333;51.382;0.016;2022-07-30T04:21:29;14.30;95.60
31084;DHT22;36333;51.382;0.016;2022-07-30T04:23:58;14.30;95.70
31084;DHT22;36333;51.382;0.016;2022-07-30T04:26:35;14.30;96.00
31084;DHT22;36333;51.382;0.016;2022-07-30T04:29:06;14.30;96.40
31084;DHT22;36333;51.382;0.016;2022-07-30T04:31:36;14.30;96.40
31084;DHT22;36333;51.382;0.016;2022-07-30T04:34:34;14.30;96.40
31084;DHT22;36333;51.382;0.016;2022-07-30T04:37:06;14.30;96.60
31084;DHT22;36333;51.382;0.016;2022-07-30T04:39:34;14.30;96.60
31084;DHT22;36333;51.382;0.016;2022-07-30T04:42:02;14.30;96.70
31084;DHT22;36333;51.382;0.016;2022-07-30T04:44:37;14.40;96.80
31084;DHT22;36333;51.382;0.016;2022-07-30T04:47:22;14.40;96.90
31084;DHT22;36333;51.382;0.016;2022-07-30T04:50:19;14.40;97.00
31084;DHT22;36333;51.382;0.016;2022-07-30T04:52:48;14.40;97.20
31084;DHT22;36333;51.382;0.016;2022-07-30T04:55:22;14.50;97.20
31084;DHT22;36333;51.382;0.016;2022-07-30T04:57:52;14.60;97.40
31084;DHT22;36333;51.382;0.016;2022-07-30T05:00:20;14.60;97.10
31084;DHT22;36333;51.382;0.016;2022-07-30T05:02:51;14.70;97.20
31084;DHT22;36333;51.382;0.016;2022-07-30T05:05:21;14.80;97.10
31084;DHT22;36333;51.382;0.016;2022-07-30T05:07:52;14.90;97.00
31084;DHT22;36333;51.382;0.016;2022-07-30T05:10:21;15.10;96.90
31084;DHT22;36333;51.382;0.016;2022-07-30T05:12:48;15.20;96.60
31084;DHT22;36333;51.382;0.016;2022-07-30T05:15:20;15.30;96.50
31084;DHT22;36333;51.382;0.016;2022-07-30T05:17:48;15.30;96.30
31084;DHT22;36333;51.382;0.016;2022-07-30T05:20:17;15.30;96.20
31084;DHT22;36333;51.382;0.016;2022-07-30T05:23:04;15.40;96.20
31084;DHT22;36333;51.382;0.016;2022-07-30T05:25:32;15.30;96.20
31084;DHT22;36333;51.382;0.016;2022-07-30T05:28:27;15.30;96.30
31084;DHT22;36333;51.382;0.016;2022-07-30T05:30:58;15.40;96.30
31084;DHT22;36333;51.382;0.016;2022-07-30T05:33:28;15.30;96.30
31084;DHT22;36333;51.382;0.016;2022-07-30T05:36:09;15.40;96.40
31084;DHT22;36333;51.382;0.016;2022-07-30T05:38:39;15.40;96.40
31084;DHT22;36333;51.382;0.016;2022-07-30T05:41:30;15.50;96.40
31084;DHT22;36333;51.382;0.016;2022-07-30T05:44:18;15.60;96.40
31084;DHT22;36333;51.382;0.016;2022-07-30T05:46:51;15.70;96.40
31084;DHT22;36333;51.382;0.016;2022-07-30T05:49:18;15.90;96.40
31084;DHT22;36333;51.382;0.016;2022-07-30T05:51:46;16.00;96.30
31084;DHT22;36333;51.382;0.016;2022-07-30T05:54:17;16.20;96.20
31084;DHT22;36333;51.382;0.016;2022-07-30T05:57:03;16.40;95.90
31084;DHT22;36333;51.382;0.016;2022-07-30T05:59:33;16.60;95.70
31084;DHT22;36333;51.382;0.016;2022-07-30T06:02:07;16.80;95.50
31084;DHT22;36333;51.382;0.016;2022-07-30T06:05:07;17.00;95.20
31084;DHT22;36333;51.382;0.016;2022-07-30T06:07:35;17.10;94.90
31084;DHT22;36333;51.382;0.016;2022-07-30T06:10:04;17.30;94.80
31084;DHT22;36333;51.382;0.016;2022-07-30T06:12:32;17.30;94.70
31084;DHT22;36333;51.382;0.016;2022-07-30T06:15:01;17.40;94.70
31084;DHT22;36333;51.382;0.016;2022-07-30T06:17:33;17.40;94.60
31084;DHT22;36333;51.382;0.016;2022-07-30T06:20:18;17.50;94.60
31084;DHT22;36333;51.382;0.016;2022-07-30T06:23:18;17.50;94.50
31084;DHT22;36333;51.382;0.016;2022-07-30T06:25:59;17.60;94.40
31084;DHT22;36333;51.382;0.016;2022-07-30T06:28:26;17.70;94.30
31084;DHT22;36333;51.382;0.016;2022-07-30T06:31:12;17.70;94.20
31084;DHT22;36333;51.382;0.016;2022-07-30T06:33:40;17.80;94.00
31084;DHT22;36333;51.382;0.016;2022-07-30T06:36:08;17.90;93.80
31084;DHT22;36333;51.382;0.016;2022-07-30T06:38:59;18.00;93.70
31084;DHT22;36333;51.382;0.016;2022-07-30T06:42:00;18.20;93.40
31084;DHT22;36333;51.382;0.016;2022-07-30T06:44:47;18.30;93.10
31084;DHT22;36333;51.382;0.016;2022-07-30T06:47:22;18.50;92.90
31084;DHT22;36333;51.382;0.016;2022-07-30T06:49:56;18.70;92.40
31084;DHT22;36333;51.382;0.016;2022-07-30T06:52:26;18.80;91.90
31084;DHT22;36333;51.382;0.016;2022-07-30T06:54:54;19.00;91.40
31084;DHT22;36333;51.382;0.016;2022-07-30T06:57:38;19.10;91.00
31084;DHT22;36333;51.382;0.016;2022-07-30T07:00:29;19.30;90.80
31084;DHT22;36333;51.382;0.016;2022-07-30T07:03:01;19.50;90.70
31084;DHT22;36333;51.382;0.016;2022-07-30T07:05:35;19.50;90.50
31084;DHT22;36333;51.382;0.016;2022-07-30T07:08:04;19.60;90.30
31084;DHT22;36333;51.382;0.016;2022-07-30T07:10:36;19.80;90.10
31084;DHT22;36333;51.382;0.016;2022-07-30T07:13:33;19.90;89.80
31084;DHT22;36333;51.382;0.016;2022-07-30T07:16:04;20.00;89.10
31084;DHT22;36333;51.382;0.016;2022-07-30T07:18:35;20.10;88.50
31084;DHT22;36333;51.382;0.016;2022-07-30T07:21:06;20.10;88.10
31084;DHT22;36333;51.382;0.016;2022-07-30T07:23:35;20.20;86.30
31084;DHT22;36333;51.382;0.016;2022-07-30T07:26:16;20.30;85.50
31084;DHT22;36333;51.382;0.016;2022-07-30T07:28:46;20.30;83.80
31084;DHT22;36333;51.382;0.016;2022-07-30T07:31:13;20.40;83.40
31084;DHT22;36333;51.382;0.016;2022-07-30T07:34:01;20.40;82.60
31084;DHT22;36333;51.382;0.016;2022-07-30T07:36:29;20.40;82.20
31084;DHT22;36333;51.382;0.016;2022-07-30T07:38:57;20.40;81.20
31084;DHT22;36333;51.382;0.016;2022-07-30T07:41:25;20.40;81.00
31084;DHT22;36333;51.382;0.016;2022-07-30T07:43:53;20.50;79.70
31084;DHT22;36333;51.382;0.016;2022-07-30T07:46:31;20.50;80.60
31084;DHT22;36333;51.382;0.016;2022-07-30T07:49:02;20.60;80.40
31084;DHT22;36333;51.382;0.016;2022-07-30T07:51:42;20.70;79.10
31084;DHT22;36333;51.382;0.016;2022-07-30T07:54:18;20.80;78.40
31084;DHT22;36333;51.382;0.016;2022-07-30T07:56:51;21.00;77.10
31084;DHT22;36333;51.382;0.016;2022-07-30T07:59:24;21.10;75.30
31084;DHT22;36333;51.382;0.016;2022-07-30T08:02:12;21.30;73.70
31084;DHT22;36333;51.382;0.016;2022-07-30T08:04:56;21.50;72.20
31084;DHT22;36333;51.382;0.016;2022-07-30T08:07:30;21.60;71.90
31084;DHT22;36333;51.382;0.016;2022-07-30T08:10:16;21.70;71.10
31084;DHT22;36333;51.382;0.016;2022-07-30T08:13:05;21.90;70.40
31084;DHT22;36333;51.382;0.016;2022-07-30T08:16:11;22.00;70.30
31084;DHT22;36333;51.382;0.016;2022-07-30T08:18:59;22.20;70.20
31084;DHT22;36333;51.382;0.016;2022-07-30T08:21:31;22.30;67.90
31084;DHT22;36333;51.382;0.016;2022-07-30T08:23:59;22.50;70.00
31084;DHT22;36333;51.382;0.016;2022-07-30T08:26:27;22.50;69.00
31084;DHT22;36333;51.382;0.016;2022-07-30T08:28:54;22.60;68.50
31084;DHT22;36333;51.382;0.016;2022-07-30T08:31:22;22.70;68.50
31084;DHT22;36333;51.382;0.016;2022-07-30T08:33:50;22.70;68.00
31084;DHT22;36333;51.382;0.016;2022-07-30T08:36:18;22.90;68.00
31084;DHT22;36333;51.382;0.016;2022-07-30T08:38:53;22.90;68.10
31084;DHT22;36333;51.382;0.016;2022-07-30T08:41:22;23.00;67.90
31084;DHT22;36333;51.382;0.016;2022-07-30T08:43:52;23.10;67.70
31084;DHT22;36333;51.382;0.016;2022-07-30T08:46:23;23.10;67.70
31084;DHT22;36333;51.382;0.016;2022-07-30T08:48:59;23.20;67.90
31084;DHT22;36333;51.382;0.016;2022-07-30T08:51:37;23.20;67.80
31084;DHT22;36333;51.382;0.016;2022-07-30T08:54:34;23.20;67.80
31084;DHT22;36333;51.382;0.016;2022-07-30T08:57:02;23.30;67.50
31084;DHT22;36333;51.382;0.016;2022-07-30T08:59:33;23.40;67.40
31084;DHT22;36333;51.382;0.016;2022-07-30T09:02:22;23.50;67.10
31084;DHT22;36333;51.382;0.016;2022-07-30T09:05:12;23.60;67.00
31084;DHT22;36333;51.382;0.016;2022-07-30T09:07:40;23.70;66.90
31084;DHT22;36333;51.382;0.016;2022-07-30T09:10:14;23.90;67.00
31084;DHT22;36333;51.382;0.016;2022-07-30T09:12:45;24.00;66.90
31084;DHT22;36333;51.382;0.016;2022-07-30T09:15:15;24.10;66.60
31084;DHT22;36333;51.382;0.016;2022-07-30T09:20:27;24.20;66.40
31084;DHT22;36333;51.382;0.016;2022-07-30T09:23:05;24.30;66.10
31084;DHT22;36333;51.382;0.016;2022-07-30T09:25:49;24.20;66.70
31084;DHT22;36333;51.382;0.016;2022-07-30T09:28:36;24.40;67.20
31084;DHT22;36333;51.382;0.016;2022-07-30T09:31:19;24.50;67.10
31084;DHT22;36333;51.382;0.016;2022-07-30T09:34:29;24.70;67.10
31084;DHT22;36333;51.382;0.016;2022-07-30T09:39:53;25.00;66.80
31084;DHT22;36333;51.382;0.016;2022-07-30T09:42:44;25.10;67.00
31084;DHT22;36333;51.382;0.016;2022-07-30T09:45:14;25.20;67.10
31084;DHT22;36333;51.382;0.016;2022-07-30T09:47:44;25.30;67.30
31084;DHT22;36333;51.382;0.016;2022-07-30T09:50:17;25.50;67.10
31084;DHT22;36333;51.382;0.016;2022-07-30T09:53:08;25.50;67.10
31084;DHT22;36333;51.382;0.016;2022-07-30T09:55:41;25.60;66.80
31084;DHT22;36333;51.382;0.016;2022-07-30T09:58:11;25.60;66.90
31084;DHT22;36333;51.382;0.016;2022-07-30T10:00:57;25.70;66.90
31084;DHT22;36333;51.382;0.016;2022-07-30T10:03:49;25.70;66.30
31084;DHT22;36333;51.382;0.016;2022-07-30T10:06:36;25.70;66.50
31084;DHT22;36333;51.382;0.016;2022-07-30T10:09:30;25.70;66.90
31084;DHT22;36333;51.382;0.016;2022-07-30T10:12:03;25.60;66.90
31084;DHT22;36333;51.382;0.016;2022-07-30T10:14:36;25.60;66.70
31084;DHT22;36333;51.382;0.016;2022-07-30T10:17:11;25.60;67.10
31084;DHT22;36333;51.382;0.016;2022-07-30T10:19:45;25.60;67.30
31084;DHT22;36333;51.382;0.016;2022-07-30T10:22:34;25.80;67.40
31084;DHT22;36333;51.382;0.016;2022-07-30T10:25:22;25.90;66.80
31084;DHT22;36333;51.382;0.016;2022-07-30T10:28:24;26.00;66.70
31084;DHT22;36333;51.382;0.016;2022-07-30T10:30:52;26.10;66.80
31084;DHT22;36333;51.382;0.016;2022-07-30T10:33:26;26.30;66.90
31084;DHT22;36333;51.382;0.016;2022-07-30T10:36:01;26.50;66.50
31084;DHT22;36333;51.382;0.016;2022-07-30T10:38:33;26.70;65.80
31084;DHT22;36333;51.382;0.016;2022-07-30T10:41:39;26.60;65.50
31084;DHT22;36333;51.382;0.016;2022-07-30T10:44:19;26.60;65.90
31084;DHT22;36333;51.382;0.016;2022-07-30T10:47:20;26.60;65.30
31084;DHT22;36333;51.382;0.016;2022-07-30T10:50:15;26.70;65.60
31084;DHT22;36333;51.382;0.016;2022-07-30T10:58:12;26.50;66.20
31084;DHT22;36333;51.382;0.016;2022-07-30T11:03:22;26.40;66.70
31084;DHT22;36333;51.382;0.016;2022-07-30T11:08:51;26.40;67.20
31084;DHT22;36333;51.382;0.016;2022-07-30T11:14:14;26.70;66.30
31084;DHT22;36333;51.382;0.016;2022-07-30T11:19:14;27.00;64.90
31084;DHT22;36333;51.382;0.016;2022-07-30T11:22:33;26.90;64.00
31084;DHT22;36333;51.382;0.016;2022-07-30T11:25:08;27.20;63.60
31084;DHT22;36333;51.382;0.016;2022-07-30T11:27:41;27.20;64.10
31084;DHT22;36333;51.382;0.016;2022-07-30T11:35:38;28.00;62.30
31084;DHT22;36333;51.382;0.016;2022-07-30T11:38:11;28.20;63.30
31084;DHT22;36333;51.382;0.016;2022-07-30T11:43:33;28.30;60.90
31084;DHT22;36333;51.382;0.016;2022-07-30T11:46:14;28.20;60.90
31084;DHT22;36333;51.382;0.016;2022-07-30T11:49:03;28.30;61.10
31084;DHT22;36333;51.382;0.016;2022-07-30T11:51:43;28.30;61.20
31084;DHT22;36333;51.382;0.016;2022-07-30T11:54:11;28.10;60.90
31084;DHT22;36333;51.382;0.016;2022-07-30T11:56:53;28.10;61.80
31084;DHT22;36333;51.382;0.016;2022-07-30T11:59:21;28.20;61.90
31084;DHT22;36333;51.382;0.016;2022-07-30T12:01:52;28.30;61.90
31084;DHT22;36333;51.382;0.016;2022-07-30T12:04:23;28.30;61.00
31084;DHT22;36333;51.382;0.016;2022-07-30T12:06:50;28.40;61.80
31084;DHT22;36333;51.382;0.016;2022-07-30T12:09:21;28.60;61.60
31084;DHT22;36333;51.382;0.016;2022-07-30T12:11:54;28.60;61.10
31084;DHT22;36333;51.382;0.016;2022-07-30T12:14:22;28.60;61.00
31084;DHT22;36333;51.382;0.016;2022-07-30T12:16:53;28.60;61.00
31084;DHT22;36333;51.382;0.016;2022-07-30T12:19:20;28.60;60.40
31084;DHT22;36333;51.382;0.016;2022-07-30T12:21:48;28.50;61.20
31084;DHT22;36333;51.382;0.016;2022-07-30T12:24:28;28.40;61.50
31084;DHT22;36333;51.382;0.016;2022-07-30T12:27:04;28.10;61.50
31084;DHT22;36333;51.382;0.016;2022-07-30T12:29:40;27.80;61.90
31084;DHT22;36333;51.382;0.016;2022-07-30T12:32:08;27.60;62.20
31084;DHT22;36333;51.382;0.016;2022-07-30T12:34:36;27.30;62.30
31084;DHT22;36333;51.382;0.016;2022-07-30T12:37:08;27.20;62.70
31084;DHT22;36333;51.382;0.016;2022-07-30T12:39:37;27.10;62.60
31084;DHT22;36333;51.382;0.016;2022-07-30T12:42:19;27.10;62.80
31084;DHT22;36333;51.382;0.016;2022-07-30T12:44:47;26.80;61.90
31084;DHT22;36333;51.382;0.016;2022-07-30T12:47:27;26.80;62.50
31084;DHT22;36333;51.382;0.016;2022-07-30T12:49:57;27.00;62.60
31084;DHT22;36333;51.382;0.016;2022-07-30T12:52:32;27.30;62.50
31084;DHT22;36333;51.382;0.016;2022-07-30T12:55:07;27.70;61.80
31084;DHT22;36333;51.382;0.016;2022-07-30T12:57:55;28.00;61.40
31084;DHT22;36333;51.382;0.016;2022-07-30T13:00:26;28.30;60.60
31084;DHT22;36333;51.382;0.016;2022-07-30T13:02:55;28.60;60.80
31084;DHT22;36333;51.382;0.016;2022-07-30T13:05:45;29.00;60.20
31084;DHT22;36333;51.382;0.016;2022-07-30T13:08:13;29.30;58.90
31084;DHT22;36333;51.382;0.016;2022-07-30T13:11:01;29.70;59.70
31084;DHT22;36333;51.382;0.016;2022-07-30T13:13:29;29.90;58.40
31084;DHT22;36333;51.382;0.016;2022-07-30T13:16:04;30.10;59.00
31084;DHT22;36333;51.382;0.016;2022-07-30T13:18:33;30.20;58.00
31084;DHT22;36333;51.382;0.016;2022-07-30T13:21:06;30.40;58.60
31084;DHT22;36333;51.382;0.016;2022-07-30T13:23:37;30.40;58.10
31084;DHT22;36333;51.382;0.016;2022-07-30T13:26:06;30.40;57.90
31084;DHT22;36333;51.382;0.016;2022-07-30T13:28:34;30.30;58.10
31084;DHT22;36333;51.382;0.016;2022-07-30T13:31:02;30.40;57.80
31084;DHT22;36333;51.382;0.016;2022-07-30T13:33:30;30.20;56.50
31084;DHT22;36333;51.382;0.016;2022-07-30T13:36:06;30.30;57.20
31084;DHT22;36333;51.382;0.016;2022-07-30T13:38:38;29.90;57.40
31084;DHT22;36333;51.382;0.016;2022-07-30T13:41:14;30.20;57.50
31084;DHT22;36333;51.382;0.016;2022-07-30T13:43:49;31.40;58.20
31084;DHT22;36333;51.382;0.016;2022-07-30T13:46:27;30.60;57.00
31084;DHT22;36333;51.382;0.016;2022-07-30T13:48:55;30.80;56.60
31084;DHT22;36333;51.382;0.016;2022-07-30T13:51:25;30.80;56.90
31084;DHT22;36333;51.382;0.016;2022-07-30T13:53:53;30.70;56.20
31084;DHT22;36333;51.382;0.016;2022-07-30T13:56:31;30.70;56.50
31084;DHT22;36333;51.382;0.016;2022-07-30T13:59:25;30.80;56.10
31084;DHT22;36333;51.382;0.016;2022-07-30T14:01:54;31.30;56.30
31084;DHT22;36333;51.382;0.016;2022-07-30T14:04:54;32.00;55.50
31084;DHT22;36333;51.382;0.016;2022-07-30T14:07:29;32.80;54.10
31084;DHT22;36333;51.382;0.016;2022-07-30T14:09:57;33.50;54.10
31084;DHT22;36333;51.382;0.016;2022-07-30T14:12:42;33.90;53.10
31084;DHT22;36333;51.382;0.016;2022-07-30T14:15:10;33.90;52.90
31084;DHT22;36333;51.382;0.016;2022-07-30T14:17:46;33.90;52.60
31084;DHT22;36333;51.382;0.016;2022-07-30T14:20:23;33.70;53.20
31084;DHT22;36333;51.382;0.016;2022-07-30T14:22:55;33.40;52.50
31084;DHT22;36333;51.382;0.016;2022-07-30T14:25:23;33.20;52.90
31084;DHT22;36333;51.382;0.016;2022-07-30T14:27:51;33.00;53.10
31084;DHT22;36333;51.382;0.016;2022-07-30T14:30:18;32.80;52.90
31084;DHT22;36333;51.382;0.016;2022-07-30T14:32:46;32.60;52.80
31084;DHT22;36333;51.382;0.016;2022-07-30T14:35:14;32.90;53.60
31084;DHT22;36333;51.382;0.016;2022-07-30T14:37:42;32.90;53.40
31084;DHT22;36333;51.382;0.016;2022-07-30T14:40:10;32.60;53.50
31084;DHT22;36333;51.382;0.016;2022-07-30T14:42:39;32.30;53.90
31084;DHT22;36333;51.382;0.016;2022-07-30T14:45:09;32.10;54.50
31084;DHT22;36333;51.382;0.016;2022-07-30T14:47:37;31.70;54.70
31084;DHT22;36333;51.382;0.016;2022-07-30T14:50:07;31.40;55.10
31084;DHT22;36333;51.382;0.016;2022-07-30T14:52:36;30.90;55.50
31084;DHT22;36333;51.382;0.016;2022-07-30T14:55:06;30.60;56.10
31084;DHT22;36333;51.382;0.016;2022-07-30T14:57:34;30.50;56.40
31084;DHT22;36333;51.382;0.016;2022-07-30T15:00:04;30.70;56.50
31084;DHT22;36333;51.382;0.016;2022-07-30T15:02:32;31.00;56.30
31084;DHT22;36333;51.382;0.016;2022-07-30T15:05:00;31.20;56.10
31084;DHT22;36333;51.382;0.016;2022-07-30T15:07:27;31.10;55.80
31084;DHT22;36333;51.382;0.016;2022-07-30T15:09:58;31.50;55.70
31084;DHT22;36333;51.382;0.016;2022-07-30T15:12:26;32.40;55.20
31084;DHT22;36333;51.382;0.016;2022-07-30T15:14:54;32.70;54.00
31084;DHT22;36333;51.382;0.016;2022-07-30T15:17:24;33.10;53.90
31084;DHT22;36333;51.382;0.016;2022-07-30T15:19:52;33.40;53.50
31084;DHT22;36333;51.382;0.016;2022-07-30T15:22:20;33.70;53.20
31084;DHT22;36333;51.382;0.016;2022-07-30T15:24:48;33.50;52.70
31084;DHT22;36333;51.382;0.016;2022-07-30T15:27:15;33.20;53.20
31084;DHT22;36333;51.382;0.016;2022-07-30T15:29:43;32.90;53.40
31084;DHT22;36333;51.382;0.016;2022-07-30T15:32:10;32.40;53.70
31084;DHT22;36333;51.382;0.016;2022-07-30T15:34:38;31.90;54.40
31084;DHT22;36333;51.382;0.016;2022-07-30T15:37:06;31.50;55.00
31084;DHT22;36333;51.382;0.016;2022-07-30T15:39:33;31.00;55.70
31084;DHT22;36333;51.382;0.016;2022-07-30T15:42:02;30.50;56.30
31084;DHT22;36333;51.382;0.016;2022-07-30T15:44:33;30.00;56.90
31084;DHT22;36333;51.382;0.016;2022-07-30T15:47:24;29.50;57.70
31084;DHT22;36333;51.382;0.016;2022-07-30T15:49:54;29.00;58.60
31084;DHT22;36333;51.382;0.016;2022-07-30T15:52:21;28.80;59.30
31084;DHT22;36333;51.382;0.016;2022-07-30T15:54:50;28.50;59.60
31084;DHT22;36333;51.382;0.016;2022-07-30T15:57:17;28.40;60.00
31084;DHT22;36333;51.382;0.016;2022-07-30T15:59:45;28.30;60.60
31084;DHT22;36333;51.382;0.016;2022-07-30T16:02:15;28.30;60.80
31084;DHT22;36333;51.382;0.016;2022-07-30T16:04:43;28.20;61.30
31084;DHT22;36333;51.382;0.016;2022-07-30T16:07:14;28.10;61.50
31084;DHT22;36333;51.382;0.016;2022-07-30T16:09:42;27.80;62.30
31084;DHT22;36333;51.382;0.016;2022-07-30T16:12:10;27.60;63.10
31084;DHT22;36333;51.382;0.016;2022-07-30T16:14:40;27.40;63.40
31084;DHT22;36333;51.382;0.016;2022-07-30T16:17:09;27.30;64.60
31084;DHT22;36333;51.382;0.016;2022-07-30T16:19:40;27.10;64.00
31084;DHT22;36333;51.382;0.016;2022-07-30T16:22:11;27.00;64.70
31084;DHT22;36333;51.382;0.016;2022-07-30T16:24:50;27.00;64.80
31084;DHT22;36333;51.382;0.016;2022-07-30T16:27:22;26.90;65.30
31084;DHT22;36333;51.382;0.016;2022-07-30T16:29:51;27.00;65.30
31084;DHT22;36333;51.382;0.016;2022-07-30T16:32:19;27.10;65.20
31084;DHT22;36333;51.382;0.016;2022-07-30T16:34:47;27.20;65.20
31084;DHT22;36333;51.382;0.016;2022-07-30T16:37:19;27.20;65.20
31084;DHT22;36333;51.382;0.016;2022-07-30T16:39:46;27.20;65.40
31084;DHT22;36333;51.382;0.016;2022-07-30T16:42:14;27.30;65.60